Time;durP1;ratioP1;P1;durP2;ratioP2;P2;SDS_P1;SDS_P2;PMS_P1;PMS_P2;Temp;Humidity;BMP_temperature;BMP_pressure;BME280_temperature;BME280_humidity;BME280_pressure;Samples;Min_cycle;Max_cycle;Signal;HPM_P1;HPM_P2
2022/09/15 00:01:00;;;;;;;;;;;;;;;;;;6280811;28;20108;-67
2022/09/15 00:04:02;;;;;;;8.82;2.13;;;;;;;;;;6283059;28;19947;-65
2022/09/15 00:07:04;;;;;;;6.07;2.28;;;;;;;;;;6278172;28;20335;-64
2022/09/15 00:10:07;;;;;;;8.60;2.05;;;;;;;;;;6280639;28;20258;-68
2022/09/15 00:13:09;;;;;;;9.95;2.17;;;;;;;;;;6278558;28;20051;-63
2022/09/15 00:16:13;;;;;;;6.60;2.25;;;;;;;;;;6283129;28;20260;-65
2022/09/15 00:19:14;;;;;;;7.53;2.08;;;;;;;;;;6282873;28;20259;-65
2022/09/15 00:22:17;;;;;;;6.35;1.85;;;;;;;;;;6274391;28;20057;-65
2022/09/15 00:25:18;;;;;;;9.57;1.98;;;;;;;;;;6274941;28;20041;-64
2022/09/15 00:28:22;;;;;;;7.90;2.10;;;;;;;;;;6275492;28;20044;-65
2022/09/15 00:31:26;;;;;;;4.53;1.80;;;;;;;;;;6277114;28;20146;-64
2022/09/15 00:34:28;;;;;;;7.78;1.90;;;;;;;;;;6276050;28;20275;-64
2022/09/15 00:37:30;;;;;;;8.70;2.03;;;;;;;;;;6278154;28;20049;-63
2022/09/15 00:40:32;;;;;;;7.85;2.30;;;;;;;;;;6279334;28;20055;-64
2022/09/15 00:43:47;;;;;;;8.35;2.42;;;;;;;;;;6278905;28;20063;-64
2022/09/15 00:46:51;;;;;;;12.35;2.55;;;;;;;;;;6284263;28;20053;-64
2022/09/15 00:49:56;;;;;;;7.78;2.35;;;;;;;;;;6284574;28;20057;-65
2022/09/15 00:53:00;;;;;;;4.38;2.25;;;;;;;;;;6278652;28;20060;-64
2022/09/15 00:56:02;;;;;;;6.95;2.05;;;;;;;;;;6277251;28;20078;-64
2022/09/15 00:59:06;;;;;;;9.23;2.50;;;;;;;;;;6282623;28;20079;-65
2022/09/15 01:02:13;;;;;;;8.15;2.28;;;;;;;;;;6278700;28;20056;-64
2022/09/15 01:05:19;;;;;;;7.95;2.30;;;;;;;;;;6283338;28;20278;-64
2022/09/15 01:08:27;;;;;;;9.07;2.05;;;;;;;;;;6278492;28;20057;-63
2022/09/15 01:11:29;;;;;;;7.70;2.47;;;;;;;;;;6278746;28;20053;-67
2022/09/15 01:14:31;;;;;;;5.43;2.20;;;;;;;;;;6276504;28;20056;-66
2022/09/15 01:17:42;;;;;;;7.47;2.15;;;;;;;;;;6268065;28;20094;-69
2022/09/15 01:21:05;;;;;;;7.22;2.00;;;;;;;;;;6275252;28;20056;-66
2022/09/15 01:24:42;;;;;;;6.07;2.05;;;;;;;;;;6273585;28;20064;-67
2022/09/15 01:28:17;;;;;;;6.35;2.00;;;;;;;;;;6173771;28;20054;-69
2022/09/15 01:31:23;;;;;;;10.73;3.28;;;;;;;;;;6174728;28;20061;-68
2022/09/15 01:34:25;;;;;;;9.48;2.50;;;;;;;;;;6177478;28;20349;-67
2022/09/15 01:37:36;;;;;;;9.15;2.60;;;;;;;;;;6169567;28;20065;-69
2022/09/15 01:40:42;;;;;;;9.43;2.35;;;;;;;;;;6175864;28;20840;-67
2022/09/15 01:43:49;;;;;;;4.88;1.90;;;;;;;;;;6174715;28;20097;-68
2022/09/15 01:46:55;;;;;;;8.23;2.00;;;;;;;;;;6169663;28;20063;-68
2022/09/15 01:50:00;;;;;;;10.43;2.22;;;;;;;;;;6176639;28;20062;-68
2022/09/15 01:53:05;;;;;;;7.43;2.25;;;;;;;;;;6176039;28;20050;-68
2022/09/15 01:56:08;;;;;;;10.10;2.67;;;;;;;;;;6175639;28;20077;-66
2022/09/15 01:59:10;;;;;;;7.90;2.00;;;;;;;;;;6176454;28;20050;-65
2022/09/15 02:02:16;;;;;;;8.30;2.22;;;;;;;;;;6248672;28;20053;-66
2022/09/15 02:05:24;;;;;;;8.07;2.60;;;;;;;;;;6273150;28;20201;-67
2022/09/15 02:08:32;;;;;;;13.95;2.50;;;;;;;;;;6274510;28;20044;-67
2022/09/15 02:11:34;;;;;;;7.85;2.53;;;;;;;;;;6273522;28;20041;-67
2022/09/15 02:14:47;;;;;;;8.13;2.30;;;;;;;;;;6272231;28;20053;-66
2022/09/15 02:17:54;;;;;;;9.43;2.50;;;;;;;;;;6274598;28;20049;-66
2022/09/15 02:21:01;;;;;;;10.18;2.70;;;;;;;;;;6274474;28;20053;-68
2022/09/15 02:24:08;;;;;;;11.23;2.70;;;;;;;;;;6274943;28;20041;-68
2022/09/15 02:27:14;;;;;;;12.23;2.65;;;;;;;;;;6275450;28;20332;-68
2022/09/15 02:30:18;;;;;;;9.57;2.55;;;;;;;;;;6275990;28;20119;-68
2022/09/15 02:33:23;;;;;;;6.82;2.53;;;;;;;;;;6277336;28;20066;-65
2022/09/15 02:36:26;;;;;;;9.13;2.45;;;;;;;;;;6275746;28;20240;-66
2022/09/15 02:39:31;;;;;;;8.32;2.70;;;;;;;;;;6274027;28;20048;-67
2022/09/15 02:42:33;;;;;;;9.25;2.75;;;;;;;;;;6274182;28;20056;-69
2022/09/15 02:45:34;;;;;;;8.80;3.05;;;;;;;;;;6276089;28;20063;-69
2022/09/15 02:48:38;;;;;;;7.13;2.33;;;;;;;;;;6272731;28;20052;-66
2022/09/15 02:51:39;;;;;;;6.82;2.45;;;;;;;;;;6259233;28;20056;-70
2022/09/15 02:54:41;;;;;;;9.25;2.53;;;;;;;;;;6277553;28;20111;-69
2022/09/15 02:57:43;;;;;;;9.43;2.63;;;;;;;;;;6271981;28;20052;-68
2022/09/15 03:00:44;;;;;;;7.22;2.13;;;;;;;;;;6271248;28;20048;-67
2022/09/15 03:03:47;;;;;;;8.80;2.88;;;;;;;;;;6273754;28;21391;-67
2022/09/15 03:06:49;;;;;;;7.97;2.63;;;;;;;;;;6274756;28;20060;-69
2022/09/15 03:09:50;;;;;;;12.57;2.53;;;;;;;;;;6270880;28;20056;-67
2022/09/15 03:12:53;;;;;;;7.32;2.85;;;;;;;;;;6272325;28;20065;-66
2022/09/15 03:15:55;;;;;;;7.28;2.47;;;;;;;;;;6276695;28;20057;-68
2022/09/15 03:18:59;;;;;;;6.75;2.58;;;;;;;;;;6275905;28;20060;-67
2022/09/15 03:22:01;;;;;;;12.52;3.03;;;;;;;;;;6274980;28;20055;-71
2022/09/15 03:25:04;;;;;;;13.52;2.75;;;;;;;;;;6279460;28;20057;-67
2022/09/15 03:28:05;;;;;;;;;;;;;;;;;;6279879;28;20243;-68
2022/09/15 03:31:09;;;;;;;9.00;2.85;;;;;;;;;;6277570;28;19925;-68
2022/09/15 03:34:12;;;;;;;8.00;2.85;;;;;;;;;;6279285;28;20112;-67
2022/09/15 03:37:13;;;;;;;11.32;3.00;;;;;;;;;;6275497;28;20095;-66
2022/09/15 03:40:16;;;;;;;6.32;2.50;;;;;;;;;;6281937;28;20060;-70
2022/09/15 03:43:17;;;;;;;11.07;3.35;;;;;;;;;;6279375;28;20312;-66
2022/09/15 03:46:19;;;;;;;7.20;3.15;;;;;;;;;;6279502;28;20052;-69
2022/09/15 03:49:23;;;;;;;5.00;3.03;;;;;;;;;;6277104;28;20056;-69
2022/09/15 03:52:25;;;;;;;6.57;2.75;;;;;;;;;;6278212;28;20106;-66
2022/09/15 03:55:26;;;;;;;10.27;3.17;;;;;;;;;;6279216;28;20058;-65
2022/09/15 03:58:28;;;;;;;7.88;3.33;;;;;;;;;;6277560;28;20482;-66
2022/09/15 04:01:30;;;;;;;6.95;2.92;;;;;;;;;;6277016;28;20064;-68
2022/09/15 04:04:33;;;;;;;7.97;3.30;;;;;;;;;;6279183;28;20061;-67
2022/09/15 04:07:35;;;;;;;5.82;2.70;;;;;;;;;;6276275;28;20045;-67
2022/09/15 04:10:38;;;;;;;9.70;3.55;;;;;;;;;;6278342;28;20339;-71
2022/09/15 04:13:40;;;;;;;7.97;2.65;;;;;;;;;;6278456;28;20366;-66
2022/09/15 04:16:42;;;;;;;9.17;2.90;;;;;;;;;;6276715;28;20079;-67
2022/09/15 04:19:45;;;;;;;7.00;2.92;;;;;;;;;;6278305;28;20095;-66
2022/09/15 04:22:47;;;;;;;8.30;2.90;;;;;;;;;;6285579;28;20359;-67
2022/09/15 04:25:55;;;;;;;5.13;2.90;;;;;;;;;;6288395;28;20041;-67
2022/09/15 04:28:57;;;;;;;9.32;3.65;;;;;;;;;;6286558;28;20064;-67
2022/09/15 04:31:59;;;;;;;10.23;2.75;;;;;;;;;;6276551;28;20041;-67
2022/09/15 04:35:02;;;;;;;9.15;2.90;;;;;;;;;;6279718;28;20061;-69
2022/09/15 04:38:03;;;;;;;12.57;4.40;;;;;;;;;;6278991;28;20067;-67
2022/09/15 04:41:06;;;;;;;6.95;3.10;;;;;;;;;;6276412;28;20059;-67
2022/09/15 04:44:07;;;;;;;11.30;3.97;;;;;;;;;;6278530;28;20228;-67
2022/09/15 04:47:09;;;;;;;6.65;2.80;;;;;;;;;;6273068;28;20062;-67
2022/09/15 04:50:12;;;;;;;9.68;2.90;;;;;;;;;;6275839;28;20112;-67
2022/09/15 04:53:14;;;;;;;10.43;3.63;;;;;;;;;;6277011;28;20052;-68
2022/09/15 04:56:17;;;;;;;6.60;3.05;;;;;;;;;;6276874;28;20064;-68
2022/09/15 04:59:19;;;;;;;11.05;3.45;;;;;;;;;;6275352;28;20041;-70
2022/09/15 05:02:21;;;;;;;7.93;3.38;;;;;;;;;;6277776;28;20127;-65
2022/09/15 05:05:24;;;;;;;7.65;3.15;;;;;;;;;;6275971;28;20287;-65
2022/09/15 05:08:25;;;;;;;8.30;3.08;;;;;;;;;;6277708;28;20056;-65
2022/09/15 05:11:29;;;;;;;15.23;3.13;;;;;;;;;;6276992;28;20376;-69
2022/09/15 05:14:31;;;;;;;6.78;2.97;;;;;;;;;;6274471;28;20124;-64
2022/09/15 05:17:33;;;;;;;13.73;3.60;;;;;;;;;;6276414;28;20053;-64
2022/09/15 05:20:36;;;;;;;9.13;3.92;;;;;;;;;;6276179;28;20073;-70
2022/09/15 05:23:38;;;;;;;14.95;3.70;;;;;;;;;;6278052;28;20041;-67
2022/09/15 05:26:40;;;;;;;16.35;3.92;;;;;;;;;;6277921;28;20057;-66
2022/09/15 05:29:42;;;;;;;10.90;4.10;;;;;;;;;;6279332;28;20041;-65
2022/09/15 05:32:43;;;;;;;10.18;3.67;;;;;;;;;;6278357;28;20049;-66
2022/09/15 05:35:53;;;;;;;9.32;4.38;;;;;;;;;;6276855;28;20057;-68
2022/09/15 05:38:56;;;;;;;9.77;3.85;;;;;;;;;;6276157;28;20060;-66
2022/09/15 05:41:58;;;;;;;8.52;3.90;;;;;;;;;;6274895;28;20111;-64
2022/09/15 05:45:00;;;;;;;11.65;3.95;;;;;;;;;;6272254;28;20052;-68
2022/09/15 05:48:02;;;;;;;9.63;4.32;;;;;;;;;;6275530;28;20076;-67
2022/09/15 05:51:05;;;;;;;10.05;4.28;;;;;;;;;;6275681;28;20108;-67
2022/09/15 05:54:07;;;;;;;;;;;;;;;;;;6276155;28;20278;-66
2022/09/15 05:57:08;;;;;;;8.98;4.10;;;;;;;;;;6270034;28;19917;-66
2022/09/15 06:00:12;;;;;;;9.10;4.50;;;;;;;;;;6276447;28;20052;-64
2022/09/15 06:03:14;;;;;;;10.43;4.55;;;;;;;;;;6275409;28;20094;-64
2022/09/15 06:06:18;;;;;;;11.52;4.25;;;;;;;;;;6277099;28;20092;-64
2022/09/15 06:09:19;;;;;;;;;;;;;;;;;;6275150;28;20049;-66
2022/09/15 06:12:21;;;;;;;11.77;5.90;;;;;;;;;;6277183;28;20224;-65
2022/09/15 06:15:23;;;;;;;11.50;5.53;;;;;;;;;;6275772;28;20052;-66
2022/09/15 06:18:25;;;;;;;7.53;5.43;;;;;;;;;;6276033;28;20248;-66
2022/09/15 06:21:29;;;;;;;9.55;5.20;;;;;;;;;;6273434;28;20054;-66
2022/09/15 06:24:31;;;;;;;14.13;5.80;;;;;;;;;;6274187;28;20067;-67
2022/09/15 06:27:33;;;;;;;22.35;5.88;;;;;;;;;;6274934;28;20048;-66
2022/09/15 06:30:35;;;;;;;7.75;6.30;;;;;;;;;;6270925;28;20061;-69
2022/09/15 06:33:37;;;;;;;13.18;6.32;;;;;;;;;;6273618;28;20304;-65
2022/09/15 06:36:40;;;;;;;16.02;7.28;;;;;;;;;;6273881;28;20102;-65
2022/09/15 06:39:43;;;;;;;14.27;6.03;;;;;;;;;;6277937;28;20236;-67
2022/09/15 06:42:44;;;;;;;14.23;7.28;;;;;;;;;;6275112;28;20061;-66
2022/09/15 06:45:46;;;;;;;11.68;6.88;;;;;;;;;;6273823;28;20045;-64
2022/09/15 06:48:50;;;;;;;13.02;7.53;;;;;;;;;;6278185;28;20044;-65
2022/09/15 06:51:53;;;;;;;23.50;8.32;;;;;;;;;;6275374;28;20059;-66
2022/09/15 06:54:54;;;;;;;13.32;7.07;;;;;;;;;;6273740;28;20075;-66
2022/09/15 06:57:56;;;;;;;12.90;7.00;;;;;;;;;;6272974;28;20053;-66
2022/09/15 07:01:01;;;;;;;12.85;7.30;;;;;;;;;;6272470;28;20331;-66
2022/09/15 07:04:07;;;;;;;14.45;7.32;;;;;;;;;;6273340;28;20052;-69
2022/09/15 07:07:10;;;;;;;17.88;6.65;;;;;;;;;;6272174;28;20094;-66
2022/09/15 07:10:11;;;;;;;13.80;6.70;;;;;;;;;;6271184;28;20091;-66
2022/09/15 07:13:13;;;;;;;12.18;6.05;;;;;;;;;;6273436;28;20091;-65
2022/09/15 07:16:15;;;;;;;16.05;6.10;;;;;;;;;;6277359;28;20240;-66
2022/09/15 07:19:17;;;;;;;13.65;6.22;;;;;;;;;;6273408;28;20056;-65
2022/09/15 07:22:20;;;;;;;14.07;6.55;;;;;;;;;;6274476;28;20094;-66
2022/09/15 07:25:21;;;;;;;14.38;6.63;;;;;;;;;;6278640;28;20094;-69
2022/09/15 07:28:23;;;;;;;13.27;6.13;;;;;;;;;;6274898;28;20351;-65
2022/09/15 07:31:27;;;;;;;14.07;6.65;;;;;;;;;;6272967;28;20079;-66
2022/09/15 07:34:28;;;;;;;10.32;5.68;;;;;;;;;;6272857;28;20057;-63
2022/09/15 07:37:32;;;;;;;17.48;6.40;;;;;;;;;;6273577;28;20052;-66
2022/09/15 07:40:34;;;;;;;15.80;6.47;;;;;;;;;;6277707;28;20125;-66
2022/09/15 07:43:35;;;;;;;13.50;6.38;;;;;;;;;;6275819;28;20045;-63
2022/09/15 07:46:37;;;;;;;10.98;6.05;;;;;;;;;;6277715;28;20379;-65
2022/09/15 07:49:39;;;;;;;11.85;5.90;;;;;;;;;;6271842;28;20052;-66
2022/09/15 07:52:42;;;;;;;16.17;5.25;;;;;;;;;;6274353;28;20057;-63
2022/09/15 07:55:43;;;;;;;;;;;;;;;;;;6273318;28;20232;-65
2022/09/15 07:58:45;;;;;;;12.65;5.75;;;;;;;;;;6271846;28;19917;-66
2022/09/15 08:01:47;;;;;;;10.43;5.35;;;;;;;;;;6272215;28;20061;-66
2022/09/15 08:04:49;;;;;;;9.83;5.00;;;;;;;;;;6271559;28;20064;-65
2022/09/15 08:07:52;;;;;;;11.02;5.45;;;;;;;;;;6271681;28;20090;-64
2022/09/15 08:10:53;;;;;;;14.48;5.40;;;;;;;;;;6272130;28;20441;-63
2022/09/15 08:13:55;;;;;;;9.60;5.28;;;;;;;;;;6278571;28;20053;-65
2022/09/15 08:16:59;;;;;;;9.18;4.38;;;;;;;;;;6276602;28;20060;-66
2022/09/15 08:20:02;;;;;;;16.77;5.32;;;;;;;;;;6278481;28;20053;-64
2022/09/15 08:23:05;;;;;;;11.07;4.90;;;;;;;;;;6276770;28;20056;-65
2022/09/15 08:26:07;;;;;;;11.60;4.43;;;;;;;;;;6279427;28;20239;-65
2022/09/15 08:29:08;;;;;;;10.18;4.05;;;;;;;;;;6277445;28;20048;-65
2022/09/15 08:32:10;;;;;;;8.73;3.72;;;;;;;;;;6277296;28;20094;-65
2022/09/15 08:35:13;;;;;;;8.10;3.88;;;;;;;;;;6275833;28;20148;-64
2022/09/15 08:38:16;;;;;;;11.80;4.90;;;;;;;;;;6282617;28;20045;-65
2022/09/15 08:41:21;;;;;;;10.13;3.58;;;;;;;;;;6282390;28;20053;-65
2022/09/15 08:44:32;;;;;;;14.30;4.22;;;;;;;;;;6281146;28;20748;-64
2022/09/15 08:47:36;;;;;;;11.18;4.03;;;;;;;;;;6279255;28;20229;-66
2022/09/15 08:50:41;;;;;;;14.02;4.50;;;;;;;;;;6280593;28;20059;-65
2022/09/15 08:53:46;;;;;;;14.27;4.65;;;;;;;;;;6277050;28;20367;-65
2022/09/15 08:56:48;;;;;;;8.98;3.58;;;;;;;;;;6275106;28;20053;-65
2022/09/15 08:59:50;;;;;;;11.77;3.83;;;;;;;;;;6275402;28;20377;-65
2022/09/15 09:03:17;;;;;;;8.98;3.33;;;;;;;;;;6276927;28;20140;-65
2022/09/15 09:06:25;;;;;;;7.57;3.83;;;;;;;;;;6277019;28;20053;-65
2022/09/15 09:09:34;;;;;;;8.57;3.60;;;;;;;;;;6277136;28;20060;-65
2022/09/15 09:12:51;;;;;;;11.18;3.85;;;;;;;;;;6272798;28;20060;-65
2022/09/15 09:16:04;;;;;;;7.28;3.67;;;;;;;;;;6276525;28;20048;-65
2022/09/15 09:19:16;;;;;;;8.63;3.75;;;;;;;;;;6272640;28;20074;-65
2022/09/15 09:22:21;;;;;;;7.32;3.03;;;;;;;;;;6275271;28;20045;-65
2022/09/15 09:25:25;;;;;;;8.05;2.70;;;;;;;;;;6275016;28;20041;-66
2022/09/15 09:28:31;;;;;;;8.50;2.65;;;;;;;;;;6274398;28;20347;-65
2022/09/15 09:31:35;;;;;;;7.78;2.80;;;;;;;;;;6275920;28;20094;-65
2022/09/15 09:34:41;;;;;;;7.57;2.50;;;;;;;;;;6275431;28;20103;-65
2022/09/15 09:37:43;;;;;;;8.68;2.53;;;;;;;;;;6275655;28;20139;-65
2022/09/15 09:40:46;;;;;;;6.45;2.50;;;;;;;;;;6276186;28;20080;-66
2022/09/15 09:43:49;;;;;;;9.13;2.47;;;;;;;;;;6279518;28;20049;-65
2022/09/15 09:46:50;;;;;;;10.75;2.60;;;;;;;;;;6277895;28;20389;-66
2022/09/15 09:49:52;;;;;;;7.43;2.45;;;;;;;;;;6275151;28;20068;-67
2022/09/15 09:52:54;;;;;;;9.95;2.50;;;;;;;;;;6275325;28;20551;-64
2022/09/15 09:56:15;;;;;;;7.60;2.70;;;;;;;;;;6276497;28;20053;-64
2022/09/15 09:59:35;;;;;;;11.68;2.63;;;;;;;;;;6274578;28;20353;-65
2022/09/15 10:02:46;;;;;;;10.18;2.60;;;;;;;;;;6276888;28;20060;-64
2022/09/15 10:06:00;;;;;;;6.43;2.53;;;;;;;;;;6276380;28;20068;-64
2022/09/15 10:09:08;;;;;;;9.07;3.30;;;;;;;;;;6274971;28;20367;-64
2022/09/15 10:12:20;;;;;;;8.63;2.30;;;;;;;;;;6277391;28;20331;-64
2022/09/15 10:15:24;;;;;;;7.57;2.63;;;;;;;;;;6278882;28;20049;-64
2022/09/15 10:18:28;;;;;;;8.85;2.40;;;;;;;;;;6280375;28;20052;-64
2022/09/15 10:21:30;;;;;;;7.80;2.75;;;;;;;;;;6274079;28;20079;-64
2022/09/15 10:24:36;;;;;;;9.48;2.30;;;;;;;;;;6275795;28;20048;-65
2022/09/15 10:27:39;;;;;;;8.65;2.65;;;;;;;;;;6276154;28;20380;-65
2022/09/15 10:31:01;;;;;;;9.65;2.63;;;;;;;;;;6280269;28;20061;-65
2022/09/15 10:34:24;;;;;;;12.50;3.17;;;;;;;;;;6250374;28;20041;-65
2022/09/15 10:37:28;;;;;;;6.70;2.65;;;;;;;;;;6247109;28;20060;-64
2022/09/15 10:40:35;;;;;;;10.75;2.63;;;;;;;;;;6247887;28;20046;-65
2022/09/15 10:43:47;;;;;;;7.75;2.67;;;;;;;;;;6246942;28;20072;-66
2022/09/15 10:46:57;;;;;;;6.25;2.53;;;;;;;;;;6238451;28;20049;-65
2022/09/15 10:50:06;;;;;;;9.35;3.35;;;;;;;;;;6239176;28;20121;-66
2022/09/15 10:53:14;;;;;;;8.20;2.85;;;;;;;;;;6257519;28;20329;-65
2022/09/15 10:56:23;;;;;;;13.60;2.95;;;;;;;;;;6244320;28;20730;-65
2022/09/15 10:59:43;;;;;;;6.93;2.08;;;;;;;;;;6237440;28;20049;-65
2022/09/15 11:03:02;;;;;;;4.22;2.05;;;;;;;;;;6246015;28;20050;-65
2022/09/15 11:06:12;;;;;;;8.52;2.55;;;;;;;;;;6251180;28;20231;-68
2022/09/15 11:09:15;;;;;;;8.00;2.58;;;;;;;;;;6246064;28;20355;-65
2022/09/15 11:12:31;;;;;;;11.07;2.92;;;;;;;;;;6244805;28;20062;-65
2022/09/15 11:15:43;;;;;;;9.20;2.35;;;;;;;;;;6243566;28;20052;-65
2022/09/15 11:18:55;;;;;;;8.07;2.65;;;;;;;;;;6245374;28;20255;-64
2022/09/15 11:21:59;;;;;;;7.22;2.72;;;;;;;;;;6243781;28;20049;-65
2022/09/15 11:25:03;;;;;;;7.10;2.38;;;;;;;;;;6240840;28;20053;-65
2022/09/15 11:28:09;;;;;;;5.65;2.35;;;;;;;;;;6256529;28;20068;-65
2022/09/15 11:31:14;;;;;;;6.03;2.40;;;;;;;;;;6252931;28;20069;-64
2022/09/15 11:34:21;;;;;;;13.52;3.28;;;;;;;;;;6238675;28;20049;-67
2022/09/15 11:37:25;;;;;;;5.07;2.35;;;;;;;;;;6248491;28;20045;-64
2022/09/15 11:40:29;;;;;;;12.30;3.10;;;;;;;;;;6249923;28;20061;-66
2022/09/15 11:43:34;;;;;;;7.55;2.83;;;;;;;;;;6255059;28;20071;-64
2022/09/15 11:46:49;;;;;;;9.48;2.20;;;;;;;;;;6275363;28;20052;-65
2022/09/15 11:49:53;;;;;;;6.28;2.53;;;;;;;;;;6279000;28;20068;-69
2022/09/15 11:52:58;;;;;;;8.30;2.45;;;;;;;;;;6279427;28;20056;-67
2022/09/15 11:56:09;;;;;;;6.20;2.65;;;;;;;;;;6279658;28;20232;-70
2022/09/15 11:59:17;;;;;;;8.60;2.60;;;;;;;;;;6277315;28;20045;-67
2022/09/15 12:02:26;;;;;;;5.40;2.85;;;;;;;;;;6280056;28;20060;-70
2022/09/15 12:05:30;;;;;;;6.78;3.00;;;;;;;;;;6276020;28;20060;-69
2022/09/15 12:08:36;;;;;;;7.18;2.10;;;;;;;;;;6279405;28;20123;-68
2022/09/15 12:11:41;;;;;;;8.65;2.50;;;;;;;;;;6279387;28;20061;-68
2022/09/15 12:14:45;;;;;;;5.57;2.10;;;;;;;;;;6281434;28;20057;-70
2022/09/15 12:17:54;;;;;;;5.43;2.80;;;;;;;;;;6279820;28;20055;-69
2022/09/15 12:21:00;;;;;;;8.65;2.22;;;;;;;;;;6279956;28;20053;-70
2022/09/15 12:24:07;;;;;;;6.68;2.33;;;;;;;;;;6281035;28;20850;-68
2022/09/15 12:27:14;;;;;;;7.88;2.15;;;;;;;;;;6277287;28;20053;-71
2022/09/15 12:30:40;;;;;;;7.45;2.28;;;;;;;;;;6275026;28;20114;-69
2022/09/15 12:33:54;;;;;;;5.13;2.30;;;;;;;;;;6277207;28;20048;-69
2022/09/15 12:37:07;;;;;;;4.65;2.20;;;;;;;;;;6281449;28;20165;-71
2022/09/15 12:40:25;;;;;;;6.22;2.33;;;;;;;;;;6282368;28;20053;-68
2022/09/15 12:43:30;;;;;;;6.90;2.83;;;;;;;;;;6280859;28;20073;-67
2022/09/15 12:46:32;;;;;;;17.75;12.27;;;;;;;;;;6280954;28;20387;-68
2022/09/15 12:49:42;;;;;;;23.48;14.85;;;;;;;;;;6277697;28;20246;-70
2022/09/15 12:52:45;;;;;;;19.95;14.23;;;;;;;;;;6279347;28;20296;-68
2022/09/15 12:55:49;;;;;;;6.07;3.00;;;;;;;;;;6275500;28;20052;-69
2022/09/15 12:58:51;;;;;;;4.13;2.33;;;;;;;;;;6276126;28;20064;-70
2022/09/15 13:01:55;;;;;;;7.68;2.97;;;;;;;;;;6278481;28;20048;-67
2022/09/15 13:04:58;;;;;;;4.88;2.08;;;;;;;;;;6276773;28;20117;-71
2022/09/15 13:08:00;;;;;;;6.90;2.30;;;;;;;;;;6277884;28;20041;-68
2022/09/15 13:11:03;;;;;;;9.90;2.20;;;;;;;;;;6277109;28;20308;-68
2022/09/15 13:14:15;;;;;;;4.15;2.10;;;;;;;;;;6275127;28;20084;-68
2022/09/15 13:17:20;;;;;;;7.47;3.00;;;;;;;;;;6273004;28;20064;-69
2022/09/15 13:20:29;;;;;;;5.13;1.83;;;;;;;;;;6279679;28;20311;-69
2022/09/15 13:23:34;;;;;;;3.47;1.98;;;;;;;;;;6273238;28;20254;-68
2022/09/15 13:26:37;;;;;;;5.53;2.00;;;;;;;;;;6280440;28;20052;-69
2022/09/15 13:29:44;;;;;;;6.78;2.20;;;;;;;;;;6280549;28;20100;-69
2022/09/15 13:32:51;;;;;;;5.60;2.20;;;;;;;;;;6277645;28;20103;-68
2022/09/15 13:36:04;;;;;;;5.43;1.90;;;;;;;;;;6276981;28;20037;-70
2022/09/15 13:39:31;;;;;;;5.70;1.90;;;;;;;;;;6281429;28;20444;-69
2022/09/15 13:42:45;;;;;;;7.53;2.00;;;;;;;;;;6279588;28;20515;-70
2022/09/15 13:45:55;;;;;;;7.78;2.13;;;;;;;;;;6281001;28;20049;-69
2022/09/15 13:49:11;;;;;;;30.83;3.05;;;;;;;;;;6276174;28;20056;-70
2022/09/15 13:52:24;;;;;;;6.88;1.88;;;;;;;;;;6276683;28;20389;-70
2022/09/15 13:55:27;;;;;;;8.98;2.30;;;;;;;;;;6278322;28;20110;-69
2022/09/15 13:58:29;;;;;;;4.78;2.10;;;;;;;;;;6278189;28;20122;-68
2022/09/15 14:01:34;;;;;;;3.78;1.50;;;;;;;;;;6277316;28;20048;-69
2022/09/15 14:04:35;;;;;;;4.03;1.80;;;;;;;;;;6278473;28;20247;-71
2022/09/15 14:07:38;;;;;;;6.43;1.45;;;;;;;;;;6275574;28;20104;-72
2022/09/15 14:10:45;;;;;;;12.68;1.92;;;;;;;;;;6276533;28;20350;-68
2022/09/15 14:13:48;;;;;;;4.40;1.70;;;;;;;;;;6267289;28;20041;-68
2022/09/15 14:16:50;;;;;;;3.70;1.30;;;;;;;;;;6253809;28;20272;-68
2022/09/15 14:19:51;;;;;;;;;;;;;;;;;;6252289;28;20057;-68
2022/09/15 14:22:55;;;;;;;18.35;2.17;;;;;;;;;;6254491;28;19925;-69
2022/09/15 14:26:00;;;;;;;4.75;2.20;;;;;;;;;;6250813;28;20041;-69
2022/09/15 14:29:04;;;;;;;4.03;1.80;;;;;;;;;;6248478;28;20060;-69
2022/09/15 14:32:06;;;;;;;5.63;4.20;;;;;;;;;;6250299;28;20045;-68
2022/09/15 14:35:09;;;;;;;6.40;3.60;;;;;;;;;;6268087;28;20137;-68
2022/09/15 14:38:21;;;;;;;39.13;24.10;;;;;;;;;;6252201;28;20041;-68
2022/09/15 14:41:24;;;;;;;8.40;4.25;;;;;;;;;;6249559;28;20109;-69
2022/09/15 14:44:27;;;;;;;;;;;;;;;;;;6252638;28;20241;-68
2022/09/15 14:47:30;;;;;;;6.80;2.05;;;;;;;;;;6246413;28;19959;-68
2022/09/15 14:50:32;;;;;;;19.88;13.05;;;;;;;;;;6252571;28;20049;-68
2022/09/15 14:53:37;;;;;;;14.18;9.80;;;;;;;;;;6252087;28;20263;-68
2022/09/15 14:56:41;;;;;;;30.30;12.73;;;;;;;;;;6272524;28;20386;-68
2022/09/15 14:59:46;;;;;;;5.72;2.08;;;;;;;;;;6267283;28;20053;-69
2022/09/15 15:02:55;;;;;;;6.03;1.85;;;;;;;;;;6269081;28;20100;-68
2022/09/15 15:05:59;;;;;;;5.60;1.65;;;;;;;;;;6270382;28;20060;-70
2022/09/15 15:09:05;;;;;;;6.85;1.63;;;;;;;;;;6269162;28;20038;-68
2022/09/15 15:12:13;;;;;;;43.70;3.80;;;;;;;;;;6270573;28;20132;-70
2022/09/15 15:15:16;;;;;;;8.13;2.03;;;;;;;;;;6270082;28;20061;-68
2022/09/15 15:18:38;;;;;;;3.58;1.70;;;;;;;;;;6270142;28;20359;-67
2022/09/15 15:21:43;;;;;;;3.90;1.70;;;;;;;;;;6274351;28;20143;-67
2022/09/15 15:24:48;;;;;;;12.32;2.10;;;;;;;;;;6273925;28;20334;-70
2022/09/15 15:27:51;;;;;;;9.10;1.85;;;;;;;;;;6274913;28;20317;-70
2022/09/15 15:30:53;;;;;;;5.93;1.77;;;;;;;;;;6274771;28;20052;-67
2022/09/15 15:33:57;;;;;;;;;;;;;;;;;;6277961;28;20091;-68
2022/09/15 15:37:02;;;;;;;5.95;1.90;;;;;;;;;;6274278;28;19929;-67
2022/09/15 15:40:12;;;;;;;5.95;2.15;;;;;;;;;;6280587;28;20040;-67
2022/09/15 15:43:22;;;;;;;6.22;1.90;;;;;;;;;;6273978;28;20049;-68
2022/09/15 15:46:46;;;;;;;3.28;1.83;;;;;;;;;;6273734;28;20045;-67
2022/09/15 15:49:48;;;;;;;4.90;1.80;;;;;;;;;;6273361;28;20056;-67
2022/09/15 15:52:50;;;;;;;4.63;1.85;;;;;;;;;;6275566;28;20052;-70
2022/09/15 15:55:54;;;;;;;8.43;1.60;;;;;;;;;;6276876;28;20067;-67
2022/09/15 15:58:55;;;;;;;6.25;1.80;;;;;;;;;;6274405;28;20059;-67
2022/09/15 16:01:58;;;;;;;8.23;1.55;;;;;;;;;;6278663;28;20052;-68
2022/09/15 16:04:59;;;;;;;4.78;1.75;;;;;;;;;;6278615;28;20049;-67
2022/09/15 16:08:03;;;;;;;3.67;1.55;;;;;;;;;;6275450;28;20063;-68
2022/09/15 16:11:09;;;;;;;18.52;2.50;;;;;;;;;;6275372;28;20049;-70
2022/09/15 16:14:12;;;;;;;4.10;1.98;;;;;;;;;;6275691;28;20206;-67
2022/09/15 16:17:14;;;;;;;22.17;2.70;;;;;;;;;;6274969;28;20368;-70
2022/09/15 16:20:18;;;;;;;8.52;1.98;;;;;;;;;;6275121;28;20049;-67
2022/09/15 16:23:21;;;;;;;3.63;1.80;;;;;;;;;;6276119;28;20059;-67
2022/09/15 16:26:24;;;;;;;9.82;1.95;;;;;;;;;;6275792;28;20316;-67
2022/09/15 16:29:34;;;;;;;5.60;1.70;;;;;;;;;;6277762;28;20048;-70
2022/09/15 16:32:36;;;;;;;9.48;2.03;;;;;;;;;;6277655;28;20053;-68
2022/09/15 16:35:40;;;;;;;9.02;1.73;;;;;;;;;;6276202;28;20041;-68
2022/09/15 16:38:43;;;;;;;4.82;1.70;;;;;;;;;;6275655;28;20235;-67
2022/09/15 16:41:46;;;;;;;7.53;1.85;;;;;;;;;;6276933;28;20231;-68
2022/09/15 16:44:48;;;;;;;13.20;2.40;;;;;;;;;;6277072;28;20053;-68
2022/09/15 16:47:49;;;;;;;6.07;1.90;;;;;;;;;;6272955;28;20060;-69
2022/09/15 16:50:51;;;;;;;4.95;1.75;;;;;;;;;;6274974;28;20045;-68
2022/09/15 16:53:53;;;;;;;2.78;1.52;;;;;;;;;;6274187;28;20049;-68
2022/09/15 16:56:56;;;;;;;5.40;1.80;;;;;;;;;;6273146;28;20100;-70
2022/09/15 16:59:58;;;;;;;5.65;1.90;;;;;;;;;;6273273;28;20072;-68
2022/09/15 17:02:59;;;;;;;9.75;2.10;;;;;;;;;;6274568;28;20331;-69
2022/09/15 17:06:01;;;;;;;7.55;2.00;;;;;;;;;;6280880;28;20303;-68
2022/09/15 17:09:03;;;;;;;6.07;2.38;;;;;;;;;;6280386;28;20333;-68
2022/09/15 17:12:08;;;;;;;6.15;1.85;;;;;;;;;;6275774;28;20292;-67
2022/09/15 17:15:22;;;;;;;5.97;2.22;;;;;;;;;;6280061;28;20149;-68
2022/09/15 17:18:23;;;;;;;6.75;2.10;;;;;;;;;;6279013;28;20068;-68
2022/09/15 17:21:26;;;;;;;6.30;2.20;;;;;;;;;;6275188;28;20190;-68
2022/09/15 17:24:27;;;;;;;10.65;2.53;;;;;;;;;;6276746;28;20487;-68
2022/09/15 17:27:30;;;;;;;5.60;1.97;;;;;;;;;;6275439;28;20052;-68
2022/09/15 17:30:32;;;;;;;5.20;2.15;;;;;;;;;;6278077;28;20057;-68
2022/09/15 17:33:34;;;;;;;4.00;2.20;;;;;;;;;;6278013;28;20224;-67
2022/09/15 17:36:36;;;;;;;6.30;2.47;;;;;;;;;;6279706;28;20076;-68
2022/09/15 17:39:37;;;;;;;5.57;2.70;;;;;;;;;;6279826;28;20061;-68
2022/09/15 17:42:41;;;;;;;8.63;2.30;;;;;;;;;;6277625;28;20052;-68
2022/09/15 17:45:43;;;;;;;10.27;2.58;;;;;;;;;;6277814;28;20346;-68
2022/09/15 17:48:44;;;;;;;7.17;2.20;;;;;;;;;;6276298;28;20060;-67
2022/09/15 17:51:46;;;;;;;14.80;2.88;;;;;;;;;;6280873;28;20884;-66
2022/09/15 17:54:47;;;;;;;17.88;3.03;;;;;;;;;;6278682;28;20053;-66
2022/09/15 17:57:50;;;;;;;14.13;2.90;;;;;;;;;;6274612;28;20275;-67
2022/09/15 18:00:52;;;;;;;7.15;2.60;;;;;;;;;;6274514;28;20071;-68
2022/09/15 18:03:54;;;;;;;3.47;2.10;;;;;;;;;;6274235;28;20053;-67
2022/09/15 18:06:56;;;;;;;8.47;2.83;;;;;;;;;;6273194;28;20087;-68
2022/09/15 18:09:57;;;;;;;8.73;3.28;;;;;;;;;;6274744;28;20051;-67
2022/09/15 18:13:01;;;;;;;8.23;2.53;;;;;;;;;;6270217;28;20064;-66
2022/09/15 18:16:04;;;;;;;7.53;2.95;;;;;;;;;;6274410;28;20052;-67
2022/09/15 18:19:05;;;;;;;7.53;3.08;;;;;;;;;;6274812;28;20053;-66
2022/09/15 18:22:07;;;;;;;4.05;2.33;;;;;;;;;;6273807;28;20059;-67
2022/09/15 18:25:15;;;;;;;10.68;3.03;;;;;;;;;;6270687;28;20053;-67